sensor_id;sensor_type;location;lat;lon;timestamp;P1;durP1;ratioP1;P2;durP2;ratioP2
23800;SDS011;12081;48.614;10.226;2022-10-16T00:02:24;4.10;;;2.80;;
23800;SDS011;12081;48.614;10.226;2022-10-16T00:05:08;4.53;;;2.90;;
23800;SDS011;12081;48.614;10.226;2022-10-16T00:07:52;6.00;;;3.20;;
23800;SDS011;12081;48.614;10.226;2022-10-16T00:10:36;3.47;;;2.37;;
23800;SDS011;12081;48.614;10.226;2022-10-16T00:13:20;7.37;;;3.00;;
23800;SDS011;12081;48.614;10.226;2022-10-16T00:16:05;3.00;;;2.70;;
23800;SDS011;12081;48.614;10.226;2022-10-16T00:18:49;6.73;;;2.83;;
23800;SDS011;12081;48.614;10.226;2022-10-16T00:21:33;4.90;;;2.60;;
23800;SDS011;12081;48.614;10.226;2022-10-16T00:24:17;6.10;;;3.07;;
23800;SDS011;12081;48.614;10.226;2022-10-16T00:27:02;4.63;;;2.90;;
23800;SDS011;12081;48.614;10.226;2022-10-16T00:29:49;3.87;;;2.50;;
23800;SDS011;12081;48.614;10.226;2022-10-16T00:32:34;4.00;;;2.83;;
23800;SDS011;12081;48.614;10.226;2022-10-16T00:35:18;8.13;;;2.40;;
23800;SDS011;12081;48.614;10.226;2022-10-16T00:38:02;4.03;;;2.90;;
23800;SDS011;12081;48.614;10.226;2022-10-16T00:40:46;3.60;;;2.23;;
23800;SDS011;12081;48.614;10.226;2022-10-16T00:51:55;4.23;;;2.50;;
23800;SDS011;12081;48.614;10.226;2022-10-16T00:54:42;3.20;;;2.80;;
23800;SDS011;12081;48.614;10.226;2022-10-16T00:57:27;5.73;;;2.97;;
23800;SDS011;12081;48.614;10.226;2022-10-16T01:00:15;4.97;;;2.93;;
23800;SDS011;12081;48.614;10.226;2022-10-16T01:03:21;3.33;;;2.80;;
23800;SDS011;12081;48.614;10.226;2022-10-16T01:06:29;5.23;;;3.37;;
23800;SDS011;12081;48.614;10.226;2022-10-16T01:27:35;3.73;;;3.10;;
23800;SDS011;12081;48.614;10.226;2022-10-16T01:30:29;6.73;;;3.50;;
23800;SDS011;12081;48.614;10.226;2022-10-16T01:36:21;5.03;;;3.37;;
23800;SDS011;12081;48.614;10.226;2022-10-16T01:39:11;4.57;;;3.43;;
23800;SDS011;12081;48.614;10.226;2022-10-16T01:45:39;6.77;;;3.60;;
23800;SDS011;12081;48.614;10.226;2022-10-16T01:48:25;7.43;;;4.00;;
23800;SDS011;12081;48.614;10.226;2022-10-16T01:51:13;5.57;;;3.63;;
23800;SDS011;12081;48.614;10.226;2022-10-16T01:53:59;4.53;;;3.67;;
23800;SDS011;12081;48.614;10.226;2022-10-16T01:56:52;6.00;;;3.80;;
23800;SDS011;12081;48.614;10.226;2022-10-16T01:59:40;7.33;;;3.93;;
23800;SDS011;12081;48.614;10.226;2022-10-16T02:02:28;6.90;;;5.43;;
23800;SDS011;12081;48.614;10.226;2022-10-16T02:05:28;6.27;;;4.30;;
23800;SDS011;12081;48.614;10.226;2022-10-16T02:08:18;9.13;;;4.10;;
23800;SDS011;12081;48.614;10.226;2022-10-16T02:11:04;7.00;;;3.83;;
23800;SDS011;12081;48.614;10.226;2022-10-16T02:13:57;7.27;;;4.23;;
23800;SDS011;12081;48.614;10.226;2022-10-16T02:16:46;6.77;;;4.50;;
23800;SDS011;12081;48.614;10.226;2022-10-16T02:19:30;4.27;;;3.87;;
23800;SDS011;12081;48.614;10.226;2022-10-16T02:22:15;5.13;;;3.70;;
23800;SDS011;12081;48.614;10.226;2022-10-16T02:25:08;7.03;;;3.73;;
23800;SDS011;12081;48.614;10.226;2022-10-16T02:30:45;5.83;;;4.77;;
23800;SDS011;12081;48.614;10.226;2022-10-16T02:33:42;6.03;;;4.10;;
23800;SDS011;12081;48.614;10.226;2022-10-16T02:36:29;11.03;;;4.40;;
23800;SDS011;12081;48.614;10.226;2022-10-16T02:39:13;5.60;;;4.93;;
23800;SDS011;12081;48.614;10.226;2022-10-16T02:41:59;6.13;;;3.80;;
23800;SDS011;12081;48.614;10.226;2022-10-16T02:44:44;6.27;;;5.00;;
23800;SDS011;12081;48.614;10.226;2022-10-16T02:47:29;4.47;;;3.87;;
23800;SDS011;12081;48.614;10.226;2022-10-16T02:50:14;6.30;;;4.37;;
23800;SDS011;12081;48.614;10.226;2022-10-16T02:53:01;6.63;;;4.23;;
23800;SDS011;12081;48.614;10.226;2022-10-16T02:55:45;5.67;;;4.37;;
23800;SDS011;12081;48.614;10.226;2022-10-16T02:58:30;7.43;;;4.03;;
23800;SDS011;12081;48.614;10.226;2022-10-16T03:01:14;4.60;;;3.87;;
23800;SDS011;12081;48.614;10.226;2022-10-16T03:04:00;5.43;;;3.70;;
23800;SDS011;12081;48.614;10.226;2022-10-16T03:06:44;5.07;;;3.30;;
23800;SDS011;12081;48.614;10.226;2022-10-16T03:09:29;5.40;;;3.80;;
23800;SDS011;12081;48.614;10.226;2022-10-16T03:12:14;3.77;;;3.43;;
23800;SDS011;12081;48.614;10.226;2022-10-16T03:14:59;6.43;;;3.80;;
23800;SDS011;12081;48.614;10.226;2022-10-16T03:17:43;5.93;;;4.10;;
23800;SDS011;12081;48.614;10.226;2022-10-16T03:20:28;6.47;;;3.90;;
23800;SDS011;12081;48.614;10.226;2022-10-16T03:23:13;3.47;;;3.17;;
23800;SDS011;12081;48.614;10.226;2022-10-16T03:26:00;6.00;;;4.30;;
23800;SDS011;12081;48.614;10.226;2022-10-16T03:28:45;8.83;;;4.73;;
23800;SDS011;12081;48.614;10.226;2022-10-16T03:31:29;7.17;;;3.90;;
23800;SDS011;12081;48.614;10.226;2022-10-16T03:34:14;7.73;;;4.20;;
23800;SDS011;12081;48.614;10.226;2022-10-16T03:36:59;7.73;;;4.07;;
23800;SDS011;12081;48.614;10.226;2022-10-16T03:39:43;8.03;;;4.40;;
23800;SDS011;12081;48.614;10.226;2022-10-16T03:42:27;8.00;;;3.50;;
23800;SDS011;12081;48.614;10.226;2022-10-16T03:45:11;5.80;;;4.00;;
23800;SDS011;12081;48.614;10.226;2022-10-16T03:47:56;4.03;;;3.63;;
23800;SDS011;12081;48.614;10.226;2022-10-16T03:50:40;6.27;;;3.73;;
23800;SDS011;12081;48.614;10.226;2022-10-16T03:53:25;8.43;;;3.50;;
23800;SDS011;12081;48.614;10.226;2022-10-16T03:56:09;4.37;;;3.27;;
23800;SDS011;12081;48.614;10.226;2022-10-16T03:58:53;4.37;;;3.70;;
23800;SDS011;12081;48.614;10.226;2022-10-16T04:01:37;4.57;;;3.43;;
23800;SDS011;12081;48.614;10.226;2022-10-16T04:04:22;4.33;;;3.27;;
23800;SDS011;12081;48.614;10.226;2022-10-16T04:07:06;5.07;;;3.33;;
23800;SDS011;12081;48.614;10.226;2022-10-16T04:09:50;5.70;;;3.27;;
23800;SDS011;12081;48.614;10.226;2022-10-16T04:12:36;6.20;;;3.77;;
23800;SDS011;12081;48.614;10.226;2022-10-16T04:15:20;7.67;;;3.77;;
23800;SDS011;12081;48.614;10.226;2022-10-16T04:18:05;5.27;;;3.60;;
23800;SDS011;12081;48.614;10.226;2022-10-16T04:20:50;6.83;;;4.00;;
23800;SDS011;12081;48.614;10.226;2022-10-16T04:23:37;9.03;;;3.87;;
23800;SDS011;12081;48.614;10.226;2022-10-16T04:26:21;7.33;;;3.63;;
23800;SDS011;12081;48.614;10.226;2022-10-16T04:29:05;4.97;;;3.47;;
23800;SDS011;12081;48.614;10.226;2022-10-16T04:31:50;6.13;;;3.63;;
23800;SDS011;12081;48.614;10.226;2022-10-16T04:34:38;4.43;;;3.10;;
23800;SDS011;12081;48.614;10.226;2022-10-16T04:37:26;5.20;;;3.13;;
23800;SDS011;12081;48.614;10.226;2022-10-16T04:40:11;4.27;;;3.43;;
23800;SDS011;12081;48.614;10.226;2022-10-16T04:42:56;4.60;;;4.10;;
23800;SDS011;12081;48.614;10.226;2022-10-16T04:45:40;4.67;;;3.63;;
23800;SDS011;12081;48.614;10.226;2022-10-16T04:48:24;9.80;;;3.93;;
23800;SDS011;12081;48.614;10.226;2022-10-16T04:51:08;4.53;;;3.73;;
23800;SDS011;12081;48.614;10.226;2022-10-16T04:53:52;7.83;;;4.17;;
23800;SDS011;12081;48.614;10.226;2022-10-16T04:56:38;3.50;;;3.20;;
23800;SDS011;12081;48.614;10.226;2022-10-16T04:59:31;4.40;;;3.40;;
23800;SDS011;12081;48.614;10.226;2022-10-16T05:02:15;7.20;;;3.40;;
23800;SDS011;12081;48.614;10.226;2022-10-16T05:04:59;4.57;;;3.83;;
23800;SDS011;12081;48.614;10.226;2022-10-16T05:07:43;6.27;;;3.53;;
23800;SDS011;12081;48.614;10.226;2022-10-16T05:10:27;4.47;;;3.87;;
23800;SDS011;12081;48.614;10.226;2022-10-16T05:13:12;5.07;;;4.03;;
23800;SDS011;12081;48.614;10.226;2022-10-16T05:15:56;3.57;;;3.27;;
23800;SDS011;12081;48.614;10.226;2022-10-16T05:18:40;6.83;;;3.80;;
23800;SDS011;12081;48.614;10.226;2022-10-16T05:21:25;8.17;;;4.17;;
23800;SDS011;12081;48.614;10.226;2022-10-16T05:24:09;5.07;;;4.03;;
23800;SDS011;12081;48.614;10.226;2022-10-16T05:26:54;6.50;;;3.33;;
23800;SDS011;12081;48.614;10.226;2022-10-16T05:29:38;7.57;;;3.80;;
23800;SDS011;12081;48.614;10.226;2022-10-16T05:35:10;8.43;;;3.70;;
23800;SDS011;12081;48.614;10.226;2022-10-16T05:37:54;8.47;;;3.87;;
23800;SDS011;12081;48.614;10.226;2022-10-16T05:40:38;7.37;;;4.10;;
23800;SDS011;12081;48.614;10.226;2022-10-16T05:43:23;5.07;;;3.90;;
23800;SDS011;12081;48.614;10.226;2022-10-16T05:46:07;3.87;;;3.43;;
23800;SDS011;12081;48.614;10.226;2022-10-16T05:48:51;4.87;;;3.77;;
23800;SDS011;12081;48.614;10.226;2022-10-16T05:51:37;5.07;;;3.90;;
23800;SDS011;12081;48.614;10.226;2022-10-16T05:54:21;7.07;;;3.50;;
23800;SDS011;12081;48.614;10.226;2022-10-16T05:57:05;6.10;;;3.70;;
23800;SDS011;12081;48.614;10.226;2022-10-16T05:59:49;6.73;;;4.00;;
23800;SDS011;12081;48.614;10.226;2022-10-16T06:02:33;4.73;;;3.60;;
23800;SDS011;12081;48.614;10.226;2022-10-16T06:05:17;7.80;;;4.50;;
23800;SDS011;12081;48.614;10.226;2022-10-16T06:08:01;4.67;;;3.27;;
23800;SDS011;12081;48.614;10.226;2022-10-16T06:10:45;7.33;;;4.00;;
23800;SDS011;12081;48.614;10.226;2022-10-16T06:13:30;5.03;;;3.93;;
23800;SDS011;12081;48.614;10.226;2022-10-16T06:16:15;7.40;;;4.73;;
23800;SDS011;12081;48.614;10.226;2022-10-16T06:18:59;6.40;;;5.17;;
23800;SDS011;12081;48.614;10.226;2022-10-16T06:21:44;7.63;;;6.83;;
23800;SDS011;12081;48.614;10.226;2022-10-16T06:24:28;6.20;;;5.60;;
23800;SDS011;12081;48.614;10.226;2022-10-16T06:27:12;9.83;;;3.00;;
23800;SDS011;12081;48.614;10.226;2022-10-16T06:29:56;5.43;;;2.30;;
23800;SDS011;12081;48.614;10.226;2022-10-16T06:32:41;5.13;;;2.50;;
23800;SDS011;12081;48.614;10.226;2022-10-16T06:35:25;3.80;;;2.00;;
23800;SDS011;12081;48.614;10.226;2022-10-16T06:38:08;5.37;;;2.20;;
23800;SDS011;12081;48.614;10.226;2022-10-16T06:40:53;4.73;;;1.87;;
23800;SDS011;12081;48.614;10.226;2022-10-16T06:43:37;4.53;;;2.40;;
23800;SDS011;12081;48.614;10.226;2022-10-16T06:46:22;3.70;;;2.90;;
23800;SDS011;12081;48.614;10.226;2022-10-16T06:49:08;4.07;;;2.40;;
23800;SDS011;12081;48.614;10.226;2022-10-16T06:51:52;3.10;;;2.17;;
23800;SDS011;12081;48.614;10.226;2022-10-16T06:54:36;7.37;;;2.33;;
23800;SDS011;12081;48.614;10.226;2022-10-16T06:57:21;2.93;;;2.17;;
23800;SDS011;12081;48.614;10.226;2022-10-16T07:00:05;4.63;;;2.30;;
23800;SDS011;12081;48.614;10.226;2022-10-16T07:02:50;5.27;;;1.97;;
23800;SDS011;12081;48.614;10.226;2022-10-16T07:05:37;3.70;;;2.40;;
23800;SDS011;12081;48.614;10.226;2022-10-16T07:08:22;2.90;;;1.90;;
23800;SDS011;12081;48.614;10.226;2022-10-16T07:11:08;3.73;;;2.13;;
23800;SDS011;12081;48.614;10.226;2022-10-16T07:13:54;7.30;;;3.30;;
23800;SDS011;12081;48.614;10.226;2022-10-16T07:16:38;2.50;;;1.67;;
23800;SDS011;12081;48.614;10.226;2022-10-16T07:19:22;3.57;;;1.90;;
23800;SDS011;12081;48.614;10.226;2022-10-16T07:22:06;2.50;;;1.73;;
23800;SDS011;12081;48.614;10.226;2022-10-16T07:24:50;4.95;;;1.80;;
23800;SDS011;12081;48.614;10.226;2022-10-16T07:27:35;4.43;;;2.03;;
23800;SDS011;12081;48.614;10.226;2022-10-16T07:30:19;3.57;;;1.90;;
23800;SDS011;12081;48.614;10.226;2022-10-16T07:33:03;5.23;;;2.10;;
23800;SDS011;12081;48.614;10.226;2022-10-16T07:35:51;4.90;;;1.70;;
23800;SDS011;12081;48.614;10.226;2022-10-16T07:38:35;6.13;;;2.23;;
23800;SDS011;12081;48.614;10.226;2022-10-16T07:41:19;2.67;;;2.20;;
23800;SDS011;12081;48.614;10.226;2022-10-16T07:44:05;3.50;;;2.00;;
23800;SDS011;12081;48.614;10.226;2022-10-16T07:46:50;7.23;;;2.37;;
23800;SDS011;12081;48.614;10.226;2022-10-16T07:49:34;4.23;;;1.97;;
23800;SDS011;12081;48.614;10.226;2022-10-16T07:52:18;4.50;;;2.22;;
23800;SDS011;12081;48.614;10.226;2022-10-16T07:55:02;6.80;;;1.90;;
23800;SDS011;12081;48.614;10.226;2022-10-16T07:57:47;4.77;;;2.40;;
23800;SDS011;12081;48.614;10.226;2022-10-16T08:00:31;4.77;;;2.90;;
23800;SDS011;12081;48.614;10.226;2022-10-16T08:03:16;4.73;;;2.57;;
23800;SDS011;12081;48.614;10.226;2022-10-16T08:06:00;4.93;;;2.53;;
23800;SDS011;12081;48.614;10.226;2022-10-16T08:08:45;4.67;;;2.77;;
23800;SDS011;12081;48.614;10.226;2022-10-16T08:11:29;5.30;;;2.60;;
23800;SDS011;12081;48.614;10.226;2022-10-16T08:14:13;4.67;;;2.77;;
23800;SDS011;12081;48.614;10.226;2022-10-16T08:16:57;6.20;;;2.43;;
23800;SDS011;12081;48.614;10.226;2022-10-16T08:19:47;5.87;;;3.07;;
23800;SDS011;12081;48.614;10.226;2022-10-16T08:22:32;4.60;;;3.40;;
23800;SDS011;12081;48.614;10.226;2022-10-16T08:25:16;3.43;;;2.73;;
23800;SDS011;12081;48.614;10.226;2022-10-16T08:28:00;3.37;;;2.70;;
23800;SDS011;12081;48.614;10.226;2022-10-16T08:30:44;6.10;;;2.77;;
23800;SDS011;12081;48.614;10.226;2022-10-16T08:33:28;4.60;;;2.60;;
23800;SDS011;12081;48.614;10.226;2022-10-16T08:36:13;3.90;;;2.73;;
23800;SDS011;12081;48.614;10.226;2022-10-16T08:38:58;3.43;;;2.90;;
23800;SDS011;12081;48.614;10.226;2022-10-16T08:47:58;4.07;;;2.70;;
23800;SDS011;12081;48.614;10.226;2022-10-16T08:50:45;2.40;;;2.20;;
23800;SDS011;12081;48.614;10.226;2022-10-16T08:53:36;7.80;;;2.43;;
23800;SDS011;12081;48.614;10.226;2022-10-16T08:56:26;4.37;;;2.57;;
23800;SDS011;12081;48.614;10.226;2022-10-16T08:59:10;7.53;;;2.93;;
23800;SDS011;12081;48.614;10.226;2022-10-16T09:01:57;3.13;;;2.50;;
23800;SDS011;12081;48.614;10.226;2022-10-16T09:04:45;3.17;;;2.87;;
23800;SDS011;12081;48.614;10.226;2022-10-16T09:11:05;5.70;;;2.40;;
23800;SDS011;12081;48.614;10.226;2022-10-16T09:17:00;3.53;;;2.47;;
23800;SDS011;12081;48.614;10.226;2022-10-16T09:20:16;4.83;;;2.67;;
23800;SDS011;12081;48.614;10.226;2022-10-16T09:23:29;3.93;;;2.23;;
23800;SDS011;12081;48.614;10.226;2022-10-16T09:26:15;4.20;;;2.33;;
23800;SDS011;12081;48.614;10.226;2022-10-16T09:29:01;4.43;;;2.10;;
23800;SDS011;12081;48.614;10.226;2022-10-16T09:31:46;3.80;;;2.50;;
23800;SDS011;12081;48.614;10.226;2022-10-16T09:34:35;3.50;;;2.50;;
23800;SDS011;12081;48.614;10.226;2022-10-16T09:37:23;4.93;;;1.90;;
23800;SDS011;12081;48.614;10.226;2022-10-16T09:40:12;4.90;;;2.13;;
23800;SDS011;12081;48.614;10.226;2022-10-16T09:46:01;4.90;;;1.97;;
23800;SDS011;12081;48.614;10.226;2022-10-16T09:48:48;4.13;;;1.80;;
23800;SDS011;12081;48.614;10.226;2022-10-16T09:51:35;4.03;;;1.90;;
23800;SDS011;12081;48.614;10.226;2022-10-16T09:54:21;3.80;;;1.70;;
23800;SDS011;12081;48.614;10.226;2022-10-16T09:57:06;2.00;;;1.80;;
23800;SDS011;12081;48.614;10.226;2022-10-16T09:59:54;2.57;;;1.60;;
23800;SDS011;12081;48.614;10.226;2022-10-16T10:02:40;4.47;;;1.63;;
23800;SDS011;12081;48.614;10.226;2022-10-16T10:05:25;6.40;;;1.57;;
23800;SDS011;12081;48.614;10.226;2022-10-16T10:08:12;6.33;;;1.77;;
23800;SDS011;12081;48.614;10.226;2022-10-16T10:11:01;4.17;;;1.30;;
23800;SDS011;12081;48.614;10.226;2022-10-16T10:13:46;7.17;;;1.70;;
23800;SDS011;12081;48.614;10.226;2022-10-16T10:16:30;3.80;;;1.60;;
23800;SDS011;12081;48.614;10.226;2022-10-16T10:19:15;2.15;;;1.55;;
23800;SDS011;12081;48.614;10.226;2022-10-16T10:22:00;6.47;;;1.60;;
23800;SDS011;12081;48.614;10.226;2022-10-16T10:24:54;7.30;;;1.80;;
23800;SDS011;12081;48.614;10.226;2022-10-16T10:37:41;4.28;;;1.55;;
23800;SDS011;12081;48.614;10.226;2022-10-16T10:40:51;2.63;;;1.70;;
23800;SDS011;12081;48.614;10.226;2022-10-16T10:46:55;3.37;;;1.50;;
23800;SDS011;12081;48.614;10.226;2022-10-16T10:55:45;2.67;;;1.60;;
23800;SDS011;12081;48.614;10.226;2022-10-16T11:05:21;4.50;;;1.27;;
23800;SDS011;12081;48.614;10.226;2022-10-16T11:08:13;3.63;;;1.63;;
23800;SDS011;12081;48.614;10.226;2022-10-16T11:11:03;4.30;;;1.70;;
23800;SDS011;12081;48.614;10.226;2022-10-16T11:13:55;2.97;;;1.67;;
23800;SDS011;12081;48.614;10.226;2022-10-16T11:16:54;3.97;;;2.00;;
23800;SDS011;12081;48.614;10.226;2022-10-16T11:19:41;2.90;;;1.90;;
23800;SDS011;12081;48.614;10.226;2022-10-16T11:22:38;2.73;;;1.50;;
23800;SDS011;12081;48.614;10.226;2022-10-16T11:25:33;2.27;;;1.80;;
23800;SDS011;12081;48.614;10.226;2022-10-16T11:28:18;3.00;;;1.83;;
23800;SDS011;12081;48.614;10.226;2022-10-16T11:31:10;2.20;;;1.60;;
23800;SDS011;12081;48.614;10.226;2022-10-16T11:37:31;3.20;;;1.47;;
23800;SDS011;12081;48.614;10.226;2022-10-16T11:40:25;3.03;;;1.85;;
23800;SDS011;12081;48.614;10.226;2022-10-16T11:43:17;1.90;;;1.50;;
23800;SDS011;12081;48.614;10.226;2022-10-16T11:46:10;2.25;;;1.52;;
23800;SDS011;12081;48.614;10.226;2022-10-16T11:49:03;5.68;;;1.70;;
23800;SDS011;12081;48.614;10.226;2022-10-16T11:51:57;2.85;;;1.67;;
23800;SDS011;12081;48.614;10.226;2022-10-16T11:54:45;3.60;;;1.50;;
23800;SDS011;12081;48.614;10.226;2022-10-16T11:57:38;1.95;;;1.40;;
23800;SDS011;12081;48.614;10.226;2022-10-16T12:00:28;1.63;;;1.17;;
23800;SDS011;12081;48.614;10.226;2022-10-16T12:03:40;3.35;;;1.58;;
23800;SDS011;12081;48.614;10.226;2022-10-16T12:06:40;3.50;;;1.35;;
23800;SDS011;12081;48.614;10.226;2022-10-16T12:09:38;3.78;;;1.30;;
23800;SDS011;12081;48.614;10.226;2022-10-16T12:15:25;3.40;;;1.40;;
23800;SDS011;12081;48.614;10.226;2022-10-16T12:18:21;2.88;;;1.20;;
23800;SDS011;12081;48.614;10.226;2022-10-16T12:21:07;4.13;;;1.30;;
23800;SDS011;12081;48.614;10.226;2022-10-16T12:23:53;3.90;;;1.02;;
23800;SDS011;12081;48.614;10.226;2022-10-16T12:26:47;3.25;;;1.50;;
23800;SDS011;12081;48.614;10.226;2022-10-16T12:29:36;1.58;;;1.20;;
23800;SDS011;12081;48.614;10.226;2022-10-16T12:35:18;3.08;;;1.05;;
23800;SDS011;12081;48.614;10.226;2022-10-16T12:38:14;1.50;;;1.08;;
23800;SDS011;12081;48.614;10.226;2022-10-16T12:41:04;6.20;;;1.05;;
23800;SDS011;12081;48.614;10.226;2022-10-16T12:43:51;3.45;;;0.95;;
23800;SDS011;12081;48.614;10.226;2022-10-16T12:46:39;3.30;;;1.20;;
23800;SDS011;12081;48.614;10.226;2022-10-16T12:49:37;1.20;;;1.10;;
23800;SDS011;12081;48.614;10.226;2022-10-16T12:55:17;3.70;;;1.35;;
23800;SDS011;12081;48.614;10.226;2022-10-16T12:58:17;1.90;;;1.20;;
23800;SDS011;12081;48.614;10.226;2022-10-16T13:01:21;3.35;;;1.20;;
23800;SDS011;12081;48.614;10.226;2022-10-16T13:26:01;2.53;;;1.30;;
23800;SDS011;12081;48.614;10.226;2022-10-16T13:28:37;3.97;;;0.90;;
23800;SDS011;12081;48.614;10.226;2022-10-16T13:31:22;5.43;;;1.20;;
23800;SDS011;12081;48.614;10.226;2022-10-16T13:34:15;1.73;;;1.13;;
23800;SDS011;12081;48.614;10.226;2022-10-16T13:37:02;1.35;;;0.90;;
23800;SDS011;12081;48.614;10.226;2022-10-16T13:40:17;1.33;;;1.05;;
23800;SDS011;12081;48.614;10.226;2022-10-16T13:43:03;1.25;;;0.90;;
23800;SDS011;12081;48.614;10.226;2022-10-16T13:46:04;3.42;;;1.08;;
23800;SDS011;12081;48.614;10.226;2022-10-16T13:48:59;1.98;;;1.13;;
23800;SDS011;12081;48.614;10.226;2022-10-16T13:51:56;3.25;;;1.00;;
23800;SDS011;12081;48.614;10.226;2022-10-16T13:54:41;1.23;;;0.90;;
23800;SDS011;12081;48.614;10.226;2022-10-16T13:57:25;2.25;;;1.00;;
23800;SDS011;12081;48.614;10.226;2022-10-16T14:03:11;2.10;;;1.27;;
23800;SDS011;12081;48.614;10.226;2022-10-16T14:06:02;2.65;;;1.10;;
23800;SDS011;12081;48.614;10.226;2022-10-16T14:08:50;3.47;;;1.23;;
23800;SDS011;12081;48.614;10.226;2022-10-16T14:11:49;4.90;;;1.30;;
23800;SDS011;12081;48.614;10.226;2022-10-16T14:14:43;4.78;;;1.25;;
23800;SDS011;12081;48.614;10.226;2022-10-16T14:17:32;1.88;;;1.20;;
23800;SDS011;12081;48.614;10.226;2022-10-16T14:20:18;1.38;;;1.10;;
23800;SDS011;12081;48.614;10.226;2022-10-16T14:23:05;1.58;;;1.20;;
23800;SDS011;12081;48.614;10.226;2022-10-16T14:29:09;2.08;;;1.25;;
23800;SDS011;12081;48.614;10.226;2022-10-16T14:32:22;2.08;;;1.42;;
23800;SDS011;12081;48.614;10.226;2022-10-16T14:35:23;2.42;;;1.48;;
23800;SDS011;12081;48.614;10.226;2022-10-16T14:38:15;2.05;;;1.20;;
23800;SDS011;12081;48.614;10.226;2022-10-16T14:41:03;1.88;;;1.20;;
23800;SDS011;12081;48.614;10.226;2022-10-16T14:43:50;2.65;;;1.27;;
23800;SDS011;12081;48.614;10.226;2022-10-16T14:46:37;3.55;;;1.42;;
23800;SDS011;12081;48.614;10.226;2022-10-16T14:49:23;2.38;;;1.35;;
23800;SDS011;12081;48.614;10.226;2022-10-16T14:52:08;1.63;;;1.10;;
23800;SDS011;12081;48.614;10.226;2022-10-16T14:54:56;3.05;;;1.15;;
23800;SDS011;12081;48.614;10.226;2022-10-16T14:57:40;1.27;;;1.17;;
23800;SDS011;12081;48.614;10.226;2022-10-16T15:00:24;3.42;;;1.40;;
23800;SDS011;12081;48.614;10.226;2022-10-16T15:03:08;3.00;;;1.00;;
23800;SDS011;12081;48.614;10.226;2022-10-16T15:05:52;1.98;;;1.23;;
23800;SDS011;12081;48.614;10.226;2022-10-16T15:08:36;2.80;;;1.20;;
23800;SDS011;12081;48.614;10.226;2022-10-16T15:11:21;3.45;;;1.30;;
23800;SDS011;12081;48.614;10.226;2022-10-16T15:14:05;5.18;;;1.30;;
23800;SDS011;12081;48.614;10.226;2022-10-16T15:16:49;3.63;;;1.35;;
23800;SDS011;12081;48.614;10.226;2022-10-16T15:19:33;1.23;;;1.13;;
23800;SDS011;12081;48.614;10.226;2022-10-16T15:22:17;1.45;;;1.08;;
23800;SDS011;12081;48.614;10.226;2022-10-16T15:25:04;5.22;;;1.30;;
23800;SDS011;12081;48.614;10.226;2022-10-16T15:28:16;3.63;;;2.00;;
23800;SDS011;12081;48.614;10.226;2022-10-16T15:31:03;2.92;;;1.90;;
23800;SDS011;12081;48.614;10.226;2022-10-16T15:33:49;3.78;;;2.05;;
23800;SDS011;12081;48.614;10.226;2022-10-16T15:36:39;3.85;;;1.92;;
23800;SDS011;12081;48.614;10.226;2022-10-16T15:39:24;2.22;;;1.20;;
23800;SDS011;12081;48.614;10.226;2022-10-16T15:42:08;6.45;;;1.50;;
23800;SDS011;12081;48.614;10.226;2022-10-16T15:44:53;4.07;;;1.30;;
23800;SDS011;12081;48.614;10.226;2022-10-16T15:47:37;1.95;;;1.58;;
23800;SDS011;12081;48.614;10.226;2022-10-16T15:50:21;3.30;;;1.30;;
23800;SDS011;12081;48.614;10.226;2022-10-16T15:53:05;3.50;;;1.60;;
23800;SDS011;12081;48.614;10.226;2022-10-16T15:55:49;2.27;;;1.50;;
23800;SDS011;12081;48.614;10.226;2022-10-16T15:58:34;6.20;;;1.80;;
23800;SDS011;12081;48.614;10.226;2022-10-16T16:01:18;3.40;;;1.75;;
23800;SDS011;12081;48.614;10.226;2022-10-16T16:04:02;3.35;;;1.95;;
23800;SDS011;12081;48.614;10.226;2022-10-16T16:06:48;4.43;;;1.42;;
23800;SDS011;12081;48.614;10.226;2022-10-16T16:09:32;1.98;;;1.55;;
23800;SDS011;12081;48.614;10.226;2022-10-16T16:12:17;3.60;;;1.60;;
23800;SDS011;12081;48.614;10.226;2022-10-16T16:15:03;1.80;;;1.37;;
23800;SDS011;12081;48.614;10.226;2022-10-16T16:17:48;3.70;;;1.20;;
23800;SDS011;12081;48.614;10.226;2022-10-16T16:20:33;2.00;;;1.47;;
23800;SDS011;12081;48.614;10.226;2022-10-16T16:23:17;2.00;;;1.80;;
23800;SDS011;12081;48.614;10.226;2022-10-16T16:26:23;3.87;;;2.00;;
23800;SDS011;12081;48.614;10.226;2022-10-16T16:29:11;2.47;;;2.27;;
23800;SDS011;12081;48.614;10.226;2022-10-16T16:31:56;4.57;;;2.60;;
23800;SDS011;12081;48.614;10.226;2022-10-16T16:34:42;4.97;;;3.07;;
23800;SDS011;12081;48.614;10.226;2022-10-16T16:37:27;8.13;;;3.93;;
23800;SDS011;12081;48.614;10.226;2022-10-16T16:40:11;7.10;;;2.63;;
23800;SDS011;12081;48.614;10.226;2022-10-16T16:42:55;3.63;;;3.00;;
23800;SDS011;12081;48.614;10.226;2022-10-16T16:45:39;2.97;;;2.53;;
23800;SDS011;12081;48.614;10.226;2022-10-16T16:48:23;4.77;;;2.93;;
23800;SDS011;12081;48.614;10.226;2022-10-16T16:51:09;5.70;;;2.20;;
23800;SDS011;12081;48.614;10.226;2022-10-16T16:53:59;3.70;;;2.20;;
23800;SDS011;12081;48.614;10.226;2022-10-16T16:56:43;4.30;;;2.70;;
23800;SDS011;12081;48.614;10.226;2022-10-16T16:59:28;6.47;;;3.50;;
23800;SDS011;12081;48.614;10.226;2022-10-16T17:02:12;3.90;;;2.60;;
23800;SDS011;12081;48.614;10.226;2022-10-16T17:04:56;4.03;;;2.90;;
23800;SDS011;12081;48.614;10.226;2022-10-16T17:07:41;9.23;;;2.43;;
23800;SDS011;12081;48.614;10.226;2022-10-16T17:10:25;2.77;;;2.23;;
23800;SDS011;12081;48.614;10.226;2022-10-16T17:13:09;5.57;;;2.43;;
23800;SDS011;12081;48.614;10.226;2022-10-16T17:15:53;3.00;;;2.10;;
23800;SDS011;12081;48.614;10.226;2022-10-16T17:18:37;4.50;;;2.40;;
23800;SDS011;12081;48.614;10.226;2022-10-16T17:21:22;6.57;;;2.60;;
23800;SDS011;12081;48.614;10.226;2022-10-16T17:24:06;6.70;;;2.90;;
23800;SDS011;12081;48.614;10.226;2022-10-16T17:26:51;3.87;;;2.90;;
23800;SDS011;12081;48.614;10.226;2022-10-16T17:29:35;8.40;;;7.50;;
23800;SDS011;12081;48.614;10.226;2022-10-16T17:32:19;34.50;;;30.80;;
23800;SDS011;12081;48.614;10.226;2022-10-16T17:35:04;22.23;;;19.57;;
23800;SDS011;12081;48.614;10.226;2022-10-16T17:37:50;7.23;;;4.43;;
23800;SDS011;12081;48.614;10.226;2022-10-16T17:40:35;5.77;;;4.77;;
23800;SDS011;12081;48.614;10.226;2022-10-16T17:43:19;15.90;;;12.13;;
23800;SDS011;12081;48.614;10.226;2022-10-16T17:46:03;10.77;;;8.63;;
23800;SDS011;12081;48.614;10.226;2022-10-16T17:48:50;11.87;;;7.43;;
23800;SDS011;12081;48.614;10.226;2022-10-16T17:51:38;6.57;;;5.87;;
23800;SDS011;12081;48.614;10.226;2022-10-16T17:54:22;7.90;;;5.40;;
23800;SDS011;12081;48.614;10.226;2022-10-16T17:57:06;4.87;;;3.30;;
23800;SDS011;12081;48.614;10.226;2022-10-16T17:59:50;7.27;;;2.93;;
23800;SDS011;12081;48.614;10.226;2022-10-16T18:02:36;3.70;;;2.63;;
23800;SDS011;12081;48.614;10.226;2022-10-16T18:05:25;3.07;;;2.40;;
23800;SDS011;12081;48.614;10.226;2022-10-16T18:08:09;6.43;;;2.63;;
23800;SDS011;12081;48.614;10.226;2022-10-16T18:10:53;4.83;;;2.77;;
23800;SDS011;12081;48.614;10.226;2022-10-16T18:13:37;4.93;;;2.77;;
23800;SDS011;12081;48.614;10.226;2022-10-16T18:16:22;4.30;;;3.10;;
23800;SDS011;12081;48.614;10.226;2022-10-16T18:19:09;4.37;;;2.60;;
23800;SDS011;12081;48.614;10.226;2022-10-16T18:21:54;3.40;;;2.37;;
23800;SDS011;12081;48.614;10.226;2022-10-16T18:24:38;3.70;;;2.40;;
23800;SDS011;12081;48.614;10.226;2022-10-16T18:27:24;4.23;;;2.80;;
23800;SDS011;12081;48.614;10.226;2022-10-16T18:30:08;6.43;;;3.10;;
23800;SDS011;12081;48.614;10.226;2022-10-16T18:32:53;8.30;;;2.93;;